Time;durP1;ratioP1;P1;durP2;ratioP2;P2;SDS_P1;SDS_P2;PMS_P1;PMS_P2;Temp;Humidity;BMP_temperature;BMP_pressure;BME280_temperature;BME280_humidity;BME280_pressure;Samples;Min_cycle;Max_cycle;Signal;HPM_P1;HPM_P2
2022/09/17 00:01:16;;;;;;;6.88;2.33;;;18.90;77.20;;;;;;5052851;28;20029;-69
2022/09/17 00:03:44;;;;;;;9.98;2.38;;;18.80;77.30;;;;;;5052391;28;20029;-69
2022/09/17 00:06:12;;;;;;;21.85;4.25;;;18.90;77.40;;;;;;5047806;28;20025;-70
2022/09/17 00:08:40;;;;;;;8.40;2.10;;;18.90;77.40;;;;;;5042859;28;20028;-70
2022/09/17 02:24:19;;;;;;;8.07;2.13;;;18.00;78.20;;;;;;5112145;27;20414;-75
2022/09/17 02:26:54;;;;;;;7.93;1.70;;;18.10;79.60;;;;;;5096928;28;20032;-73
2022/09/17 02:29:25;;;;;;;;;;;18.20;79.30;;;;;;5106845;27;20500;-77
2022/09/17 02:31:52;;;;;;;5.28;1.95;;;18.20;79.10;;;;;;5093206;28;20366;-73
2022/09/17 02:34:20;;;;;;;3.53;1.20;;;18.20;78.80;;;;;;5092779;28;20111;-77
2022/09/17 02:36:46;;;;;;;5.03;2.67;;;18.30;78.60;;;;;;5094403;28;20016;-75
2022/09/17 02:39:13;;;;;;;5.07;1.50;;;18.20;78.30;;;;;;5100876;28;20107;-77
2022/09/17 02:41:51;;;;;;;3.53;1.80;;;18.30;78.20;;;;;;5093278;28;20041;-74
2022/09/17 02:44:37;;;;;;;8.23;3.38;;;18.30;78.20;;;;;;5093503;28;20115;-80
2022/09/17 02:47:25;;;;;;;7.78;3.70;;;18.30;78.20;;;;;;5093852;28;20034;-73
2022/09/17 02:50:28;;;;;;;8.35;3.88;;;18.30;78.10;;;;;;5099178;28;20022;-75
2022/09/17 02:53:13;;;;;;;5.28;2.97;;;18.30;78.10;;;;;;5097847;28;20047;-74
2022/09/17 02:55:55;;;;;;;6.88;3.78;;;18.30;78.20;;;;;;5098086;28;20066;-72
2022/09/17 02:58:44;;;;;;;3.90;2.72;;;18.20;78.20;;;;;;5106639;28;20035;-72
2022/09/17 03:01:26;;;;;;;11.02;3.42;;;18.20;78.00;;;;;;5094174;28;20110;-73
2022/09/17 03:03:55;;;;;;;7.72;3.85;;;18.20;78.00;;;;;;5093210;28;20031;-74
2022/09/17 03:06:22;;;;;;;6.07;2.50;;;18.20;78.30;;;;;;5107061;28;20020;-78
2022/09/17 03:08:50;;;;;;;6.07;2.67;;;18.20;78.60;;;;;;5087169;28;20377;-75
2022/09/17 03:11:16;;;;;;;5.03;2.88;;;18.20;78.20;;;;;;5100196;28;20125;-77
2022/09/17 03:13:43;;;;;;;9.27;3.45;;;18.20;77.90;;;;;;5090795;28;20026;-75
2022/09/17 03:16:10;;;;;;;9.90;3.10;;;18.20;77.60;;;;;;5098936;28;20020;-76
2022/09/17 03:18:36;;;;;;;7.80;3.20;;;18.20;77.40;;;;;;5097883;28;20068;-75
2022/09/17 03:21:03;;;;;;;9.75;3.38;;;18.20;77.30;;;;;;5095090;28;20103;-74
2022/09/17 03:23:29;;;;;;;8.02;4.40;;;18.20;77.10;;;;;;5102964;28;20407;-75
2022/09/17 03:25:56;;;;;;;5.60;3.30;;;18.20;77.00;;;;;;5083214;28;20032;-75
2022/09/17 03:28:24;;;;;;;13.35;3.15;;;18.20;77.00;;;;;;5077815;28;20039;-72
2022/09/17 03:30:51;;;;;;;9.13;3.42;;;18.10;76.90;;;;;;5082605;28;20102;-73
2022/09/17 03:33:18;;;;;;;10.85;3.45;;;18.20;76.90;;;;;;5086269;28;20031;-74
2022/09/17 03:35:46;;;;;;;14.88;3.92;;;18.10;76.80;;;;;;5080833;28;20024;-77
2022/09/17 03:38:13;;;;;;;16.58;6.68;;;18.10;77.80;;;;;;5083750;28;20021;-77
2022/09/17 03:40:40;;;;;;;12.63;6.75;;;18.20;78.80;;;;;;5094898;28;20343;-75
2022/09/17 03:43:07;;;;;;;25.13;16.40;;;18.20;78.70;;;;;;5081261;28;20036;-76
2022/09/17 03:45:34;;;;;;;21.23;16.27;;;18.20;78.30;;;;;;5068973;28;20021;-75
2022/09/17 03:48:00;;;;;;;20.80;14.95;;;18.20;78.00;;;;;;5077339;28;20499;-75
2022/09/17 03:50:27;;;;;;;18.10;11.23;;;18.20;78.00;;;;;;5065501;28;20378;-77
2022/09/17 03:52:53;;;;;;;26.95;18.70;;;18.20;78.20;;;;;;5068807;28;20374;-78
2022/09/17 03:55:20;;;;;;;22.67;13.48;;;18.20;78.60;;;;;;5084419;28;20052;-76
2022/09/17 03:57:46;;;;;;;15.65;9.35;;;18.20;78.50;;;;;;5079517;28;20032;-76
2022/09/17 04:00:16;;;;;;;13.13;6.25;;;18.20;78.30;;;;;;5088648;28;20028;-75
2022/09/17 04:02:44;;;;;;;11.75;4.75;;;18.20;78.20;;;;;;5091236;28;20018;-77
2022/09/17 04:05:10;;;;;;;11.05;4.43;;;18.20;78.20;;;;;;5055860;28;20028;-75
2022/09/17 04:07:38;;;;;;;5.50;3.58;;;18.20;78.20;;;;;;5088976;28;20028;-77
2022/09/17 04:10:05;;;;;;;11.13;4.78;;;18.20;78.30;;;;;;5067585;28;20052;-75
2022/09/17 04:12:32;;;;;;;10.25;4.55;;;18.20;78.50;;;;;;5087982;28;20032;-76
2022/09/17 04:14:58;;;;;;;17.65;4.03;;;18.20;78.60;;;;;;5085817;28;20065;-74
2022/09/17 04:17:24;;;;;;;14.18;5.57;;;18.10;79.20;;;;;;5085372;28;20028;-72
2022/09/17 04:19:52;;;;;;;14.70;5.93;;;18.10;78.80;;;;;;5085968;28;20064;-77
2022/09/17 04:22:19;;;;;;;14.45;4.85;;;18.20;79.00;;;;;;5059948;28;20063;-78
2022/09/17 04:24:45;;;;;;;12.48;5.32;;;18.10;79.00;;;;;;5058807;28;20016;-75
2022/09/17 04:27:12;;;;;;;13.13;4.93;;;18.10;79.10;;;;;;5054821;28;20029;-77
2022/09/17 04:29:38;;;;;;;15.23;4.30;;;18.10;79.20;;;;;;5055709;28;20112;-74
2022/09/17 04:32:05;;;;;;;8.70;4.25;;;18.10;79.20;;;;;;5053088;28;20029;-74
2022/09/17 04:34:31;;;;;;;11.52;3.70;;;18.10;79.20;;;;;;5054052;28;20104;-74
2022/09/17 04:36:58;;;;;;;12.77;3.20;;;18.10;79.10;;;;;;5056395;28;20029;-73
2022/09/17 04:39:29;;;;;;;9.02;3.38;;;18.10;79.10;;;;;;5055625;28;20016;-75
2022/09/17 04:41:55;;;;;;;11.88;3.13;;;18.10;79.10;;;;;;5053804;28;20024;-75
2022/09/17 04:44:22;;;;;;;9.35;2.83;;;18.10;79.10;;;;;;5052395;28;20021;-78
2022/09/17 04:46:48;;;;;;;7.78;3.05;;;18.10;79.00;;;;;;5056443;28;20103;-76
2022/09/17 04:49:16;;;;;;;4.65;2.17;;;18.10;79.00;;;;;;5053275;28;20772;-76
2022/09/17 04:51:42;;;;;;;11.57;2.47;;;18.00;78.90;;;;;;5058085;28;20037;-78
2022/09/17 04:54:09;;;;;;;7.45;2.10;;;18.10;78.50;;;;;;5053740;28;20025;-73
2022/09/17 04:56:35;;;;;;;7.10;1.90;;;18.00;78.60;;;;;;5064490;28;20024;-74
2022/09/17 04:59:02;;;;;;;6.82;2.95;;;17.90;79.50;;;;;;5063372;28;20367;-74
2022/09/17 05:01:28;;;;;;;6.90;2.20;;;17.90;79.50;;;;;;5059918;28;20143;-75
2022/09/17 05:03:55;;;;;;;5.85;2.53;;;17.90;79.20;;;;;;5065927;28;20029;-78
2022/09/17 05:06:21;;;;;;;6.90;2.13;;;17.90;79.00;;;;;;5059119;28;20033;-76
2022/09/17 05:08:48;;;;;;;12.93;6.72;;;17.90;79.30;;;;;;5066285;28;20158;-75
2022/09/17 05:11:14;;;;;;;21.67;14.57;;;17.90;79.70;;;;;;5072414;28;20552;-76
2022/09/17 05:13:41;;;;;;;18.92;14.60;;;17.90;79.70;;;;;;5068821;28;20474;-80
2022/09/17 05:16:07;;;;;;;10.95;8.00;;;17.90;79.50;;;;;;5057639;28;20021;-81
2022/09/17 05:18:34;;;;;;;9.18;5.68;;;17.90;79.30;;;;;;5055152;28;20862;-78
2022/09/17 05:21:00;;;;;;;16.38;4.40;;;18.00;79.20;;;;;;5061494;28;20012;-75
2022/09/17 05:23:27;;;;;;;9.35;3.60;;;18.00;79.20;;;;;;5081529;28;20402;-76
2022/09/17 05:25:58;;;;;;;7.28;3.22;;;18.00;79.40;;;;;;5085816;28;20074;-80
2022/09/17 05:28:26;;;;;;;10.38;3.42;;;18.00;79.30;;;;;;5082673;28;20025;-75
2022/09/17 05:30:52;;;;;;;6.85;2.40;;;17.90;79.10;;;;;;5090806;28;20030;-79
2022/09/17 05:33:19;;;;;;;9.90;3.00;;;18.00;79.20;;;;;;5086372;28;20039;-78
2022/09/17 05:35:46;;;;;;;65.90;9.80;;;18.00;79.10;;;;;;5088142;28;20034;-82
2022/09/17 05:38:12;;;;;;;116.28;20.90;;;18.00;79.10;;;;;;5080649;28;20078;-85
2022/09/17 05:40:39;;;;;;;94.90;16.92;;;18.00;79.00;;;;;;5090224;28;20474;-81
2022/09/17 05:43:06;;;;;;;13.30;3.60;;;18.00;79.00;;;;;;5088131;28;20718;-75
2022/09/17 05:45:34;;;;;;;11.57;3.05;;;18.10;78.80;;;;;;5082913;28;20025;-79
2022/09/17 05:48:03;;;;;;;7.72;3.00;;;18.00;78.50;;;;;;5068774;28;20027;-79
2022/09/17 05:50:30;;;;;;;10.90;2.78;;;17.90;78.70;;;;;;5079140;28;20056;-78
2022/09/17 05:52:57;;;;;;;6.72;3.35;;;17.80;79.00;;;;;;5083605;28;20039;-79
2022/09/17 05:55:23;;;;;;;15.48;4.13;;;17.70;79.80;;;;;;5077010;28;20021;-73
2022/09/17 05:57:50;;;;;;;6.40;3.33;;;17.60;80.30;;;;;;5074333;28;20477;-78
2022/09/17 06:00:17;;;;;;;14.38;8.25;;;17.60;80.60;;;;;;5059260;28;20020;-76
2022/09/17 06:02:44;;;;;;;16.63;9.68;;;17.70;80.70;;;;;;5081161;28;20389;-77
2022/09/17 06:05:10;;;;;;;14.95;8.05;;;17.70;80.60;;;;;;5066526;28;20028;-81
2022/09/17 06:07:38;;;;;;;11.32;6.07;;;17.80;80.40;;;;;;5086578;28;20022;-73
2022/09/17 06:10:07;;;;;;;7.70;4.10;;;17.90;80.30;;;;;;5085917;28;20019;-75
2022/09/17 06:12:34;;;;;;;11.48;5.63;;;17.90;80.10;;;;;;5063709;28;20048;-78
2022/09/17 06:15:01;;;;;;;6.78;4.60;;;18.00;79.90;;;;;;5084966;28;20012;-74
2022/09/17 06:17:28;;;;;;;8.85;3.85;;;18.00;79.70;;;;;;5087195;28;20051;-79
2022/09/17 06:19:54;;;;;;;12.80;5.32;;;18.10;79.50;;;;;;5084487;28;20063;-78
2022/09/17 06:22:22;;;;;;;9.48;3.40;;;18.10;79.30;;;;;;5086849;28;20486;-75
2022/09/17 06:24:48;;;;;;;10.88;4.78;;;18.10;79.20;;;;;;5078578;28;20114;-77
2022/09/17 06:27:15;;;;;;;10.95;4.93;;;18.20;79.10;;;;;;5086651;28;20016;-80
2022/09/17 06:29:41;;;;;;;6.95;3.13;;;18.20;79.00;;;;;;5082303;28;20020;-79
2022/09/17 06:32:14;;;;;;;8.05;2.60;;;18.30;79.00;;;;;;5078187;28;20071;-76
2022/09/17 06:34:41;;;;;;;7.15;2.50;;;18.30;78.90;;;;;;5077771;28;20378;-74
2022/09/17 06:37:07;;;;;;;8.70;2.00;;;18.30;78.80;;;;;;5082223;28;20012;-76
2022/09/17 06:39:34;;;;;;;5.38;1.25;;;18.40;78.60;;;;;;5080110;28;20020;-77
2022/09/17 06:42:00;;;;;;;4.07;1.73;;;18.30;78.40;;;;;;5083081;28;20020;-74
2022/09/17 06:44:27;;;;;;;3.08;1.08;;;18.40;78.20;;;;;;5088211;28;20035;-79
2022/09/17 06:46:53;;;;;;;2.20;1.65;;;18.40;78.00;;;;;;5087975;28;20091;-78
2022/09/17 06:49:20;;;;;;;1.08;0.63;;;18.40;77.90;;;;;;5087389;28;20028;-79
2022/09/17 06:51:47;;;;;;;3.83;0.70;;;18.40;77.70;;;;;;5072471;28;20039;-77
2022/09/17 06:54:13;;;;;;;1.13;0.45;;;18.40;77.70;;;;;;5086901;28;20032;-80
2022/09/17 06:56:40;;;;;;;2.35;1.15;;;18.40;77.60;;;;;;5094252;28;20030;-81
2022/09/17 06:59:06;;;;;;;0.90;0.50;;;18.50;77.70;;;;;;5107898;28;20027;-82
2022/09/17 07:01:33;;;;;;;2.88;0.77;;;18.50;77.70;;;;;;5099653;28;20020;-79
2022/09/17 07:03:59;;;;;;;2.85;0.68;;;18.50;77.70;;;;;;5106571;28;20019;-80
2022/09/17 07:06:25;;;;;;;3.67;1.13;;;18.50;77.70;;;;;;5098007;28;20546;-81
2022/09/17 07:08:52;;;;;;;2.30;1.02;;;18.50;77.60;;;;;;5103418;28;20493;-84
2022/09/17 07:11:19;;;;;;;0.68;0.52;;;18.50;77.60;;;;;;5095445;28;20033;-80
2022/09/17 07:13:45;;;;;;;3.83;0.57;;;18.60;77.40;;;;;;5100587;28;20020;-82
2022/09/17 07:16:11;;;;;;;3.03;0.60;;;18.60;77.20;;;;;;5107086;28;20024;-80
2022/09/17 07:18:39;;;;;;;3.25;0.70;;;18.60;77.00;;;;;;5092884;28;20020;-83
2022/09/17 07:21:06;;;;;;;5.13;0.57;;;18.70;76.90;;;;;;5098325;28;20081;-80
2022/09/17 07:23:35;;;;;;;0.60;0.30;;;18.70;76.60;;;;;;5107530;28;20074;-78
2022/09/17 07:26:04;;;;;;;1.52;1.17;;;18.70;76.20;;;;;;5088032;28;20482;-80
2022/09/17 07:28:30;;;;;;;1.17;0.52;;;18.70;75.90;;;;;;5099772;28;20040;-82
2022/09/17 07:30:57;;;;;;;2.40;0.35;;;18.70;75.50;;;;;;5090359;28;20017;-79
2022/09/17 07:33:26;;;;;;;0.65;0.28;;;18.70;75.20;;;;;;5094466;28;20046;-87
2022/09/17 07:36:05;;;;;;;1.20;0.40;;;18.80;75.00;;;;;;5080376;28;20458;-83
2022/09/17 07:38:33;;;;;;;1.70;0.43;;;18.80;74.70;;;;;;5105186;28;20022;-82
2022/09/17 07:41:00;;;;;;;8.75;0.90;;;18.80;74.40;;;;;;5097398;28;20020;-86
2022/09/17 07:43:28;;;;;;;4.25;0.80;;;18.80;74.20;;;;;;5093768;28;20046;-81
2022/09/17 07:45:57;;;;;;;11.32;1.10;;;18.90;74.30;;;;;;5111755;28;20675;-83
2022/09/17 07:48:24;;;;;;;8.45;1.05;;;18.90;74.60;;;;;;5112122;28;20019;-84
2022/09/17 07:50:51;;;;;;;3.17;1.10;;;18.90;74.70;;;;;;5097083;28;20039;-82
2022/09/17 07:53:18;;;;;;;1.75;0.65;;;19.00;74.80;;;;;;5094629;28;20532;-86
2022/09/17 07:55:54;;;;;;;1.98;0.80;;;19.00;74.80;;;;;;5110595;28;20012;-86
2022/09/17 07:58:22;;;;;;;3.90;0.80;;;19.00;74.80;;;;;;5101769;28;20028;-84
2022/09/17 08:00:49;;;;;;;3.08;0.73;;;19.00;74.90;;;;;;5095956;28;20031;-82
2022/09/17 08:03:16;;;;;;;4.22;1.00;;;19.00;74.90;;;;;;5100770;28;20640;-82
2022/09/17 12:40:42;;;;;;;;;;;19.50;63.10;;;;;;6213951;23;20023;-81
2022/09/17 12:43:18;;;;;;;5.93;1.55;;;19.50;62.10;;;;;;6213256;23;19910;-81
2022/09/17 12:46:07;;;;;;;5.00;1.48;;;19.50;61.80;;;;;;6211829;23;20087;-82
2022/09/17 12:49:22;;;;;;;2.45;1.02;;;19.50;61.60;;;;;;6210270;23;20008;-81
2022/09/17 12:52:15;;;;;;;2.42;0.80;;;19.40;61.50;;;;;;6210223;23;20063;-78
2022/09/17 12:55:06;;;;;;;5.22;1.48;;;19.40;61.30;;;;;;6210929;23;20005;-76
2022/09/17 12:57:49;;;;;;;3.63;1.02;;;19.40;61.10;;;;;;6212631;23;20036;-80
2022/09/17 13:00:16;;;;;;;5.45;1.38;;;19.50;61.10;;;;;;6212016;23;20005;-77
2022/09/17 13:02:57;;;;;;;3.55;1.00;;;19.50;61.10;;;;;;6212142;23;20439;-74
2022/09/17 13:05:27;;;;;;;1.83;1.60;;;19.50;61.10;;;;;;6212793;23;20454;-76
2022/09/17 13:08:06;;;;;;;3.42;2.15;;;19.50;61.00;;;;;;6211229;23;20038;-79
2022/09/17 13:10:50;;;;;;;3.83;1.17;;;19.50;60.90;;;;;;6212713;23;20070;-81
2022/09/17 13:13:52;;;;;;;2.63;1.00;;;19.50;60.70;;;;;;6211287;23;20005;-80
2022/09/17 13:16:36;;;;;;;2.65;1.45;;;19.50;60.50;;;;;;6212076;23;20003;-76
2022/09/17 13:19:19;;;;;;;3.88;2.47;;;19.60;60.40;;;;;;6212734;23;20004;-79
2022/09/17 13:21:53;;;;;;;3.00;1.95;;;19.60;60.40;;;;;;6211289;23;19997;-78
2022/09/17 13:24:23;;;;;;;4.07;1.65;;;19.60;60.20;;;;;;6212308;23;20009;-79
2022/09/17 13:26:53;;;;;;;3.83;2.15;;;19.60;60.10;;;;;;6211851;23;20036;-78
2022/09/17 13:29:43;;;;;;;4.40;2.08;;;19.70;60.10;;;;;;6212486;23;20020;-80
2022/09/17 13:32:37;;;;;;;3.78;1.25;;;19.70;60.10;;;;;;6211937;23;20018;-77
2022/09/17 13:35:16;;;;;;;3.58;1.23;;;19.80;60.00;;;;;;6196792;23;20012;-79
2022/09/17 13:37:51;;;;;;;2.97;1.15;;;19.80;59.80;;;;;;6211970;23;20428;-76
2022/09/17 13:40:37;;;;;;;2.50;1.23;;;19.80;59.50;;;;;;6212043;23;20344;-75
2022/09/17 13:43:03;;;;;;;;;;;19.80;59.40;;;;;;6211618;23;20495;-73
2022/09/17 13:45:32;;;;;;;4.75;1.00;;;19.80;59.20;;;;;;6212365;23;19904;-77
2022/09/17 13:48:10;;;;;;;3.95;1.30;;;19.80;59.20;;;;;;6210858;23;20007;-74
2022/09/17 13:50:41;;;;;;;2.72;0.93;;;19.80;59.40;;;;;;6212896;23;20017;-79
2022/09/17 13:53:25;;;;;;;3.40;1.30;;;19.80;59.50;;;;;;6210593;23;20005;-77
2022/09/17 13:56:20;;;;;;;2.70;1.23;;;19.80;59.50;;;;;;6211748;23;20080;-75
2022/09/17 13:58:49;;;;;;;3.83;1.00;;;19.70;59.40;;;;;;6211721;23;20005;-75
2022/09/17 14:01:56;;;;;;;4.10;1.00;;;19.70;59.20;;;;;;6210620;23;20023;-77
2022/09/17 14:04:31;;;;;;;;;;;19.70;59.30;;;;;;6212046;23;20024;-77
2022/09/17 14:06:58;;;;;;;3.93;1.43;;;19.70;59.20;;;;;;6211120;23;20244;-77
2022/09/17 14:09:49;;;;;;;3.90;1.75;;;19.70;59.20;;;;;;6211978;23;20004;-79
2022/09/17 14:12:40;;;;;;;5.55;2.13;;;19.70;59.30;;;;;;6211665;23;20020;-78
2022/09/17 14:15:42;;;;;;;4.18;2.00;;;19.60;59.40;;;;;;6210476;23;20012;-75
2022/09/17 14:18:27;;;;;;;2.72;1.58;;;19.60;59.50;;;;;;6211675;23;20443;-76
2022/09/17 14:21:39;;;;;;;2.42;0.98;;;19.60;59.60;;;;;;6212141;23;20008;-76
2022/09/17 14:25:07;;;;;;;5.43;1.67;;;19.60;59.60;;;;;;6209923;23;20089;-74
2022/09/17 14:27:49;;;;;;;;;;;19.60;59.60;;;;;;6210584;23;20012;-73
2022/09/17 14:30:45;;;;;;;2.38;1.10;;;19.50;59.60;;;;;;6212078;23;19900;-79
2022/09/17 14:34:00;;;;;;;3.15;1.42;;;19.50;59.60;;;;;;6209968;23;20005;-75
2022/09/17 14:37:06;;;;;;;6.32;1.60;;;19.50;59.40;;;;;;6210666;23;20012;-77
2022/09/17 14:40:15;;;;;;;7.55;1.60;;;19.50;59.40;;;;;;6211480;23;20019;-77
2022/09/17 14:43:22;;;;;;;4.03;1.65;;;19.50;59.40;;;;;;6211727;23;20007;-77
2022/09/17 14:46:43;;;;;;;7.05;2.03;;;19.50;59.50;;;;;;6210692;23;20458;-78
2022/09/17 14:49:52;;;;;;;1.83;0.90;;;19.40;59.50;;;;;;6211659;23;20000;-75
2022/09/17 14:53:10;;;;;;;11.38;1.80;;;19.40;59.50;;;;;;6211059;23;20024;-77
2022/09/17 14:56:17;;;;;;;4.93;2.13;;;19.40;60.80;;;;;;6210006;23;20048;-79
2022/09/17 14:59:23;;;;;;;5.75;1.65;;;19.30;60.70;;;;;;6211318;23;20000;-77
2022/09/17 15:02:44;;;;;;;5.40;1.23;;;19.30;61.00;;;;;;6213249;23;19996;-75
2022/09/17 15:06:05;;;;;;;3.13;1.80;;;19.20;61.00;;;;;;6164334;23;20001;-79
2022/09/17 15:08:32;;;;;;;8.07;1.55;;;19.20;61.20;;;;;;6090002;23;20013;-76
2022/09/17 15:11:25;;;;;;;3.13;1.48;;;19.20;61.30;;;;;;6206432;23;20020;-78
2022/09/17 15:14:07;;;;;;;5.72;1.77;;;19.20;61.40;;;;;;6172995;23;20506;-74
2022/09/17 15:16:50;;;;;;;;;;;;;;;;;;;;;
2022/09/17 15:20:07;;;;;;;2.47;1.50;;;19.10;61.60;;;;;;6205995;23;20075;-75
2022/09/17 15:23:16;;;;;;;5.72;1.77;;;19.10;61.60;;;;;;6188015;23;20013;-74
2022/09/17 15:26:22;;;;;;;7.50;1.88;;;19.10;61.60;;;;;;6211121;23;20007;-74
2022/09/17 15:29:31;;;;;;;5.72;1.73;;;19.10;61.50;;;;;;6210945;23;20020;-74
2022/09/17 15:32:43;;;;;;;6.85;3.10;;;19.10;61.50;;;;;;6211952;23;20000;-77
2022/09/17 15:35:13;;;;;;;6.47;3.60;;;19.10;61.40;;;;;;6213299;23;20039;-76
2022/09/17 15:38:43;;;;;;;6.18;3.38;;;19.10;61.40;;;;;;6211913;23;20005;-72
2022/09/17 15:41:51;;;;;;;4.20;2.45;;;19.10;61.30;;;;;;6212159;23;20020;-75
2022/09/17 15:44:24;;;;;;;5.15;3.00;;;19.10;61.30;;;;;;6213194;23;20008;-77
2022/09/17 15:46:55;;;;;;;9.77;4.88;;;19.00;61.00;;;;;;6212019;23;20411;-78
2022/09/17 15:50:04;;;;;;;11.95;6.30;;;19.00;60.80;;;;;;6213325;23;20005;-82
2022/09/17 15:53:08;;;;;;;11.32;5.78;;;19.00;60.80;;;;;;6207935;23;20008;-74
2022/09/17 15:56:12;;;;;;;7.95;6.45;;;19.00;60.80;;;;;;6211695;23;20594;-81
2022/09/17 15:58:48;;;;;;;11.68;7.97;;;19.00;60.80;;;;;;6211641;23;20004;-75
2022/09/17 16:01:14;;;;;;;;;;;19.00;60.80;;;;;;6212135;23;20079;-78
2022/09/17 16:03:45;;;;;;;22.48;11.75;;;19.00;60.80;;;;;;6212982;23;20200;-79
2022/09/17 20:16:39;;;;;;;8.30;5.15;;;17.20;72.80;;;;;;5122014;27;20408;-69
2022/09/17 20:19:14;;;;;;;8.80;4.22;;;17.40;72.80;;;;;;5123534;28;20111;-69
2022/09/17 20:21:40;;;;;;;15.30;5.22;;;17.40;72.60;;;;;;5119281;28;20482;-69
2022/09/17 20:24:07;;;;;;;8.20;4.97;;;17.40;72.50;;;;;;5125574;27;20473;-68
2022/09/17 20:26:34;;;;;;;9.25;4.50;;;17.50;72.50;;;;;;5122984;28;20518;-69
2022/09/17 20:29:01;;;;;;;10.70;5.05;;;17.50;72.40;;;;;;5119708;28;20023;-70
2022/09/17 20:31:30;;;;;;;12.32;5.40;;;17.50;72.30;;;;;;5121101;28;20092;-70
2022/09/17 20:33:59;;;;;;;6.97;4.05;;;17.50;72.20;;;;;;5122892;27;20043;-70
2022/09/17 20:36:32;;;;;;;12.18;4.88;;;17.50;72.10;;;;;;5120511;28;20532;-70
2022/09/17 20:38:59;;;;;;;7.32;4.30;;;17.50;72.10;;;;;;5121496;28;20034;-69
2022/09/17 20:41:30;;;;;;;10.77;3.85;;;17.50;71.80;;;;;;5123934;28;20023;-70
2022/09/17 20:43:57;;;;;;;4.65;3.63;;;17.50;71.40;;;;;;5123926;27;20039;-70
2022/09/17 20:46:25;;;;;;;11.50;3.90;;;17.50;70.90;;;;;;5116328;28;20054;-70
2022/09/17 20:48:52;;;;;;;5.88;3.10;;;17.50;70.60;;;;;;5122286;28;20020;-69
2022/09/17 20:51:21;;;;;;;8.13;4.00;;;17.50;70.30;;;;;;5124580;28;20034;-70
2022/09/17 20:53:49;;;;;;;9.45;5.93;;;17.50;70.00;;;;;;5120996;27;20389;-70
2022/09/17 20:56:23;;;;;;;5.45;3.30;;;17.50;69.90;;;;;;5120062;27;20019;-70
2022/09/17 20:59:22;;;;;;;5.22;2.97;;;17.40;69.60;;;;;;5124484;28;20028;-70
2022/09/17 21:01:48;;;;;;;8.48;3.58;;;17.40;69.50;;;;;;5121913;28;20031;-69
2022/09/17 21:04:20;;;;;;;6.82;4.20;;;17.40;69.40;;;;;;5123972;27;20034;-70
2022/09/17 21:06:50;;;;;;;9.45;3.63;;;17.40;69.20;;;;;;5121808;28;20015;-70
2022/09/17 21:09:17;;;;;;;6.15;4.03;;;17.40;68.90;;;;;;5122490;28;20015;-69
2022/09/17 21:11:46;;;;;;;7.63;3.70;;;17.40;68.80;;;;;;5124753;28;20020;-70
2022/09/17 21:14:14;;;;;;;7.55;3.70;;;17.40;68.60;;;;;;5122740;27;20024;-69
2022/09/17 21:16:41;;;;;;;7.32;3.45;;;17.40;68.50;;;;;;5113137;28;20043;-70
2022/09/17 21:19:09;;;;;;;4.95;2.92;;;17.30;68.30;;;;;;5105312;28;20020;-70
2022/09/17 21:21:36;;;;;;;6.25;2.92;;;17.30;68.30;;;;;;5107836;28;20418;-71
2022/09/17 21:24:04;;;;;;;9.15;3.10;;;17.30;68.20;;;;;;5110660;27;20119;-70
2022/09/17 21:26:32;;;;;;;7.55;3.03;;;17.30;68.10;;;;;;5107203;28;20020;-71
2022/09/17 21:28:58;;;;;;;7.80;3.47;;;17.30;68.20;;;;;;5107702;28;20023;-71
2022/09/17 21:31:30;;;;;;;6.45;3.20;;;17.30;68.00;;;;;;5109534;28;20039;-70
2022/09/17 21:33:59;;;;;;;4.18;2.30;;;17.30;67.90;;;;;;5109058;27;20477;-70
2022/09/17 21:36:28;;;;;;;6.20;2.92;;;17.30;68.00;;;;;;5106862;28;20012;-70
2022/09/17 21:38:57;;;;;;;4.82;2.25;;;17.20;67.90;;;;;;5108099;28;20032;-70
2022/09/17 21:41:24;;;;;;;9.00;3.63;;;17.20;67.80;;;;;;5109281;28;20082;-70
2022/09/17 21:43:51;;;;;;;5.45;3.63;;;17.20;67.90;;;;;;5104232;27;20414;-70
2022/09/17 21:46:28;;;;;;;8.65;3.60;;;17.20;68.20;;;;;;5109958;28;20351;-70
2022/09/17 21:48:58;;;;;;;8.85;3.88;;;17.20;68.40;;;;;;5108451;28;20068;-70
2022/09/17 21:51:31;;;;;;;3.78;2.70;;;17.20;68.50;;;;;;5104553;28;20022;-70
2022/09/17 21:54:08;;;;;;;7.47;3.25;;;17.10;68.40;;;;;;5109993;27;20080;-70
2022/09/17 21:56:35;;;;;;;10.48;3.92;;;17.20;68.20;;;;;;5108369;28;20503;-70
2022/09/17 21:59:04;;;;;;;8.10;4.10;;;17.20;68.10;;;;;;5105298;28;20038;-70
2022/09/17 22:01:38;;;;;;;5.35;2.90;;;17.20;68.00;;;;;;5104184;28;20039;-70
2022/09/17 22:04:07;;;;;;;6.82;3.38;;;17.20;67.80;;;;;;5112355;27;20084;-70
2022/09/17 22:06:35;;;;;;;7.40;3.00;;;17.20;67.60;;;;;;5105921;28;20079;-70
2022/09/17 22:09:03;;;;;;;5.00;3.00;;;17.10;67.40;;;;;;5109360;28;20537;-70
2022/09/17 22:11:33;;;;;;;4.45;2.13;;;17.10;67.30;;;;;;5109787;28;20062;-70
2022/09/17 22:14:04;;;;;;;6.82;2.30;;;17.20;67.20;;;;;;5108515;27;20549;-70
2022/09/17 22:16:34;;;;;;;11.40;3.10;;;17.10;67.10;;;;;;5103476;28;20055;-71
2022/09/17 22:19:02;;;;;;;5.38;1.88;;;17.10;66.80;;;;;;5108693;28;20015;-70
2022/09/17 22:21:31;;;;;;;6.55;1.90;;;17.10;66.60;;;;;;5108744;28;20020;-71
2022/09/17 22:24:00;;;;;;;3.92;1.85;;;17.10;66.50;;;;;;5109011;27;20035;-71
2022/09/17 22:26:29;;;;;;;2.28;1.33;;;17.10;67.10;;;;;;5108280;28;20171;-70
2022/09/17 22:29:03;;;;;;;4.85;2.42;;;17.10;66.50;;;;;;5105610;28;20020;-70
2022/09/17 22:31:30;;;;;;;7.72;3.00;;;17.10;66.50;;;;;;5105363;28;20015;-70
2022/09/17 22:33:57;;;;;;;9.23;3.55;;;17.10;66.60;;;;;;5109616;27;20152;-70
2022/09/17 22:36:25;;;;;;;9.15;4.55;;;17.10;67.50;;;;;;5102560;28;20150;-71
2022/09/17 22:38:55;;;;;;;10.98;4.03;;;17.00;67.00;;;;;;5105305;28;20081;-70
2022/09/17 22:41:24;;;;;;;6.47;3.13;;;17.00;67.00;;;;;;5102408;28;20015;-70
2022/09/17 22:43:54;;;;;;;6.32;2.55;;;17.00;67.00;;;;;;5105970;27;20040;-71
2022/09/17 22:46:26;;;;;;;7.05;3.53;;;17.00;67.00;;;;;;5105353;28;20023;-70
2022/09/17 22:48:53;;;;;;;4.82;3.90;;;17.00;67.20;;;;;;5105094;28;20023;-70
2022/09/17 22:51:19;;;;;;;6.65;2.70;;;17.00;67.20;;;;;;5107436;28;20020;-70
2022/09/17 22:53:46;;;;;;;7.03;3.35;;;17.00;67.30;;;;;;5090586;28;20381;-70
2022/09/17 22:56:14;;;;;;;13.70;3.85;;;16.90;67.30;;;;;;5106904;27;20067;-70
2022/09/17 22:58:41;;;;;;;7.32;3.03;;;17.00;69.10;;;;;;5105814;28;20028;-70
2022/09/17 23:01:11;;;;;;;9.13;3.58;;;17.00;68.40;;;;;;5106440;28;20053;-70
2022/09/17 23:03:39;;;;;;;7.95;3.88;;;17.00;68.20;;;;;;5105421;28;20111;-70
2022/09/17 23:06:09;;;;;;;9.07;2.90;;;16.90;68.40;;;;;;5104742;27;20031;-70
2022/09/17 23:08:36;;;;;;;7.70;3.40;;;16.90;68.50;;;;;;5104855;28;20026;-70
2022/09/17 23:11:05;;;;;;;10.05;3.20;;;16.90;68.50;;;;;;5104014;28;20020;-70
2022/09/17 23:13:32;;;;;;;6.25;3.08;;;16.90;68.50;;;;;;5105395;28;20027;-70
2022/09/17 23:16:06;;;;;;;10.13;3.53;;;16.90;68.00;;;;;;5102722;28;20168;-70
2022/09/17 23:18:34;;;;;;;10.27;3.83;;;16.80;67.60;;;;;;5107362;28;20031;-70
2022/09/17 23:21:05;;;;;;;5.97;3.45;;;16.80;67.10;;;;;;5108358;27;20020;-70
2022/09/17 23:23:33;;;;;;;4.32;2.78;;;16.80;66.70;;;;;;5095814;28;20115;-70
2022/09/17 23:26:12;;;;;;;6.68;2.90;;;16.80;66.40;;;;;;5104766;28;20070;-70
2022/09/17 23:28:38;;;;;;;5.38;2.92;;;16.70;66.10;;;;;;5104567;28;20468;-70
2022/09/17 23:31:13;;;;;;;7.38;3.50;;;16.70;65.90;;;;;;5108138;28;20107;-70
2022/09/17 23:33:40;;;;;;;7.95;3.55;;;16.70;65.70;;;;;;5099458;28;20492;-70
2022/09/17 23:36:11;;;;;;;7.88;3.20;;;16.70;65.60;;;;;;5088896;28;20390;-69
2022/09/17 23:38:38;;;;;;;8.70;4.00;;;16.60;66.00;;;;;;5107151;27;20080;-70
2022/09/17 23:41:22;;;;;;;11.95;3.55;;;16.70;65.90;;;;;;5104605;28;20023;-69
2022/09/17 23:43:54;;;;;;;7.05;3.28;;;16.60;65.60;;;;;;5104869;28;20027;-70
2022/09/17 23:46:22;;;;;;;5.40;3.22;;;16.60;65.50;;;;;;5103537;28;20027;-70
2022/09/17 23:48:50;;;;;;;6.50;3.10;;;16.60;65.40;;;;;;5106790;28;20448;-70
2022/09/17 23:51:17;;;;;;;5.57;3.15;;;16.60;65.20;;;;;;5105991;28;20023;-69
2022/09/17 23:53:43;;;;;;;6.65;2.92;;;16.60;65.10;;;;;;5105738;28;20552;-70
2022/09/17 23:56:20;;;;;;;7.25;3.70;;;16.60;65.00;;;;;;5083097;28;20044;-69
2022/09/17 23:58:47;;;;;;;5.05;3.63;;;16.60;65.00;;;;;;5104052;28;20077;-70
